Time;durP1;ratioP1;P1;durP2;ratioP2;P2;SDS_P1;SDS_P2;PMS_P1;PMS_P2;Temp;Humidity;BMP_temperature;BMP_pressure;BME280_temperature;BME280_humidity;BME280_pressure;Samples;Min_cycle;Max_cycle;Signal;HPM_P1;HPM_P2
2023/04/05 00:00:33;;;;;;;1999.90;999.90;;;0.60;99.90;;;;;;4946861;29;20803;-81
2023/04/05 00:02:59;;;;;;;1999.90;999.90;;;0.60;99.90;;;;;;4940365;29;20039;-82
2023/04/05 00:05:29;;;;;;;1999.90;999.90;;;2.10;94.90;;;;;;4927549;28;20484;-82
2023/04/05 00:08:02;;;;;;;1999.90;999.90;;;3.90;99.90;;;;;;4936502;29;20493;-82
2023/04/05 00:10:31;;;;;;;1999.90;999.90;;;0.60;90.10;;;;;;4923174;29;20048;-82
2023/04/05 00:12:57;;;;;;;1999.90;999.90;;;-1.00;99.90;;;;;;4931857;29;20461;-82
2023/04/05 00:15:24;;;;;;;1999.90;999.90;;;-0.40;99.90;;;;;;4933033;29;20395;-81
2023/04/05 00:17:50;;;;;;;1999.90;999.90;;;-0.80;99.90;;;;;;4931110;29;20051;-82
2023/04/05 00:20:15;;;;;;;1999.90;999.90;;;2.20;95.30;;;;;;4937128;29;20051;-82
2023/04/05 00:22:43;;;;;;;1999.90;999.90;;;1.50;95.30;;;;;;4941926;29;20568;-82
2023/04/05 00:25:09;;;;;;;1999.90;999.90;;;1.10;93.70;;;;;;4956498;28;20405;-81
2023/04/05 00:27:35;;;;;;;1999.90;999.90;;;0.40;94.10;;;;;;4956039;29;20066;-81
2023/04/05 00:30:01;;;;;;;1999.90;999.90;;;0.20;99.90;;;;;;4954080;29;20043;-82
2023/04/05 00:32:27;;;;;;;1999.90;999.90;;;0.30;95.30;;;;;;4951118;28;20417;-82
2023/04/05 00:34:52;;;;;;;1999.90;999.90;;;-0.30;99.90;;;;;;4944252;28;20526;-82
2023/04/05 00:37:18;;;;;;;1999.90;999.90;;;3.30;95.10;;;;;;4934659;29;20047;-82
2023/04/05 00:39:44;;;;;;;1999.90;999.90;;;1.90;94.90;;;;;;4937934;29;20044;-82
2023/04/05 00:42:10;;;;;;;1999.90;999.90;;;0.30;99.90;;;;;;4955047;28;20050;-82
2023/04/05 00:44:36;;;;;;;1999.90;999.90;;;0.60;96.10;;;;;;4925959;29;20063;-82
2023/04/05 00:47:06;;;;;;;1999.90;999.90;;;2.30;97.60;;;;;;4928814;29;20064;-82
2023/04/05 00:49:33;;;;;;;1999.90;999.90;;;0.50;99.90;;;;;;4937487;29;20483;-82
2023/04/05 00:51:59;;;;;;;1999.90;999.90;;;0.90;99.90;;;;;;4946281;29;20067;-82
2023/04/05 00:54:29;;;;;;;1999.90;999.90;;;0.50;99.90;;;;;;4938854;29;20491;-82
2023/04/05 00:56:56;;;;;;;1999.90;999.90;;;1.30;97.60;;;;;;4938363;28;20054;-82
2023/04/05 00:59:22;;;;;;;1999.90;999.90;;;1.00;99.90;;;;;;4939151;28;20110;-83
2023/04/05 01:02:15;;;;;;;1999.90;999.90;;;-0.20;97.70;;;;;;4936170;29;20062;-81
2023/04/05 01:04:48;;;;;;;1999.90;999.90;;;;;;;;;;4941824;29;20094;-82
2023/04/05 01:07:44;;;;;;;1999.90;999.90;;;0.10;92.70;;;;;;4949183;29;20130;-82
2023/04/05 01:10:12;;;;;;;1999.90;999.90;;;-0.40;99.90;;;;;;4944170;29;20047;-81
2023/04/05 01:12:38;;;;;;;1999.90;999.90;;;2.20;98.70;;;;;;4953199;28;20043;-82
2023/04/05 01:15:04;;;;;;;1999.90;999.90;;;-2.00;99.90;;;;;;4944444;28;20051;-81
2023/04/05 01:17:35;;;;;;;1999.90;999.90;;;0.00;99.90;;;;;;4935579;28;20123;-82
2023/04/05 01:20:10;;;;;;;1999.90;999.90;;;0.60;99.90;;;;;;4934618;29;20103;-81
2023/04/05 01:22:45;;;;;;;1999.90;999.90;;;0.30;99.90;;;;;;4950979;29;20404;-81
2023/04/05 01:25:18;;;;;;;1999.90;999.90;;;-0.10;99.90;;;;;;4948963;28;20418;-81
2023/04/05 01:27:56;;;;;;;1999.90;999.90;;;-0.30;99.90;;;;;;4950670;29;20393;-82
2023/04/05 01:30:33;;;;;;;1999.90;999.90;;;0.00;99.90;;;;;;4946545;29;20059;-81
2023/04/05 01:33:02;;;;;;;1999.90;999.90;;;1.90;99.90;;;;;;4935222;29;20044;-81
2023/04/05 01:35:37;;;;;;;1999.90;999.90;;;-0.30;99.90;;;;;;4944246;29;20058;-81
2023/04/05 01:38:05;;;;;;;1999.90;999.90;;;-0.20;99.90;;;;;;4950832;28;20047;-81
2023/04/05 01:40:32;;;;;;;1999.90;999.90;;;1.20;99.90;;;;;;4954140;28;20424;-82
2023/04/05 01:43:01;;;;;;;1999.90;999.90;;;2.10;99.90;;;;;;4948615;28;20168;-82
2023/04/05 01:45:26;;;;;;;1999.90;999.90;;;1.40;99.90;;;;;;4941236;29;20059;-81
2023/04/05 01:47:52;;;;;;;1999.90;999.90;;;2.00;99.90;;;;;;4933902;29;20044;-82
2023/04/05 01:50:18;;;;;;;1999.90;999.90;;;-0.30;99.90;;;;;;4934379;29;20050;-82
2023/04/05 01:52:44;;;;;;;1999.90;999.90;;;-0.30;99.90;;;;;;4942850;29;20051;-82
2023/04/05 01:55:09;;;;;;;1999.90;999.90;;;1.60;99.90;;;;;;4947635;28;20047;-81
2023/04/05 01:57:36;;;;;;;1999.90;999.90;;;2.30;99.90;;;;;;4954043;29;20050;-81
2023/04/05 02:00:02;;;;;;;1999.90;999.90;;;0.30;99.90;;;;;;4946875;28;20588;-82
2023/04/05 02:02:27;;;;;;;1999.90;999.90;;;-0.40;99.90;;;;;;4931171;29;20075;-82
2023/04/05 02:04:53;;;;;;;1999.90;999.90;;;-0.40;99.90;;;;;;4931843;29;20051;-82
2023/04/05 02:07:19;;;;;;;1999.90;999.90;;;1.50;99.90;;;;;;4941615;29;20464;-83
2023/04/05 02:09:44;;;;;;;1999.90;999.90;;;-0.70;99.90;;;;;;4938070;29;20039;-82
2023/04/05 02:12:10;;;;;;;1999.90;999.90;;;-0.60;99.90;;;;;;4951099;29;20110;-81
2023/04/05 02:14:36;;;;;;;1999.90;999.90;;;;;;;;;;4924728;29;20564;-82
2023/04/05 02:17:02;;;;;;;1999.90;999.90;;;-0.50;99.90;;;;;;4957497;28;20087;-81
2023/04/05 02:19:30;;;;;;;1999.90;999.90;;;-1.60;99.90;;;;;;4933126;29;20055;-81
2023/04/05 02:21:56;;;;;;;;;;;0.70;99.90;;;;;;4938464;29;20060;-82
2023/04/05 02:24:21;;;;;;;1999.90;999.90;;;1.40;99.90;;;;;;4944101;29;19927;-81
2023/04/05 02:26:47;;;;;;;1999.90;999.90;;;-1.00;99.90;;;;;;4949683;28;20416;-81
2023/04/05 02:29:13;;;;;;;1999.90;999.90;;;-0.90;99.90;;;;;;4954456;29;20049;-81
2023/04/05 02:31:38;;;;;;;1999.90;999.90;;;0.00;99.90;;;;;;4948367;28;20079;-81
2023/04/05 02:34:08;;;;;;;1999.90;999.90;;;-1.20;99.90;;;;;;4933742;29;20098;-82
2023/04/05 02:36:34;;;;;;;1999.90;999.90;;;2.20;99.90;;;;;;4944025;29;20137;-82
2023/04/05 02:39:00;;;;;;;1999.90;999.90;;;;;;;;;;4939269;29;20062;-82
2023/04/05 02:41:26;;;;;;;1999.90;999.90;;;-0.70;99.90;;;;;;4940039;28;20067;-84
2023/04/05 02:43:51;;;;;;;1999.90;999.90;;;-0.70;99.90;;;;;;4934165;29;20051;-82
2023/04/05 02:46:17;;;;;;;1999.90;999.90;;;1.10;99.90;;;;;;4934363;29;20044;-82
2023/04/05 02:48:45;;;;;;;1999.90;999.90;;;1.90;99.90;;;;;;4956786;29;20046;-82
2023/04/05 02:51:10;;;;;;;1999.90;999.90;;;-1.30;99.90;;;;;;4949284;28;20052;-83
2023/04/05 02:53:36;;;;;;;1999.90;999.90;;;-1.20;99.90;;;;;;4938634;29;20048;-83
2023/04/05 02:56:02;;;;;;;1999.90;999.90;;;-1.10;99.90;;;;;;4938730;29;20396;-82
2023/04/05 02:58:27;;;;;;;1999.90;999.90;;;-0.70;99.90;;;;;;4954032;28;20074;-83
2023/04/05 03:00:55;;;;;;;1999.90;999.90;;;;;;;;;;4956510;29;20146;-82
2023/04/05 03:03:21;;;;;;;1999.90;999.90;;;0.00;99.90;;;;;;4954947;29;20047;-82
2023/04/05 03:05:48;;;;;;;1999.90;999.90;;;0.70;99.90;;;;;;4956157;29;20105;-82
2023/04/05 03:08:22;;;;;;;1999.90;999.90;;;-2.10;99.90;;;;;;4944129;28;20389;-83
2023/04/05 03:10:50;;;;;;;1999.90;999.90;;;0.70;99.90;;;;;;4937561;29;20051;-82
2023/04/05 03:13:16;;;;;;;1999.90;999.90;;;1.70;99.90;;;;;;4938015;29;20119;-83
2023/04/05 03:15:42;;;;;;;1999.90;999.90;;;;;;;;;;4943567;28;20059;-82
2023/04/05 03:18:08;;;;;;;1999.90;999.90;;;-1.10;99.90;;;;;;4936702;29;20452;-82
2023/04/05 03:20:38;;;;;;;1999.90;999.90;;;-0.90;99.90;;;;;;4956328;28;20066;-83
2023/04/05 03:23:08;;;;;;;1999.90;999.90;;;-0.90;99.90;;;;;;4953968;28;20142;-82
2023/04/05 03:25:37;;;;;;;1999.90;999.90;;;-0.90;99.90;;;;;;4946161;28;20054;-83
2023/04/05 03:28:07;;;;;;;1999.90;999.90;;;-1.20;99.90;;;;;;4939223;29;20098;-82
2023/04/05 03:30:34;;;;;;;1999.90;999.90;;;1.90;99.90;;;;;;4937054;28;20055;-83
2023/04/05 03:33:00;;;;;;;1999.90;999.90;;;;;;;;;;4953834;28;20039;-82
2023/04/05 03:35:28;;;;;;;1999.90;999.90;;;1.00;99.90;;;;;;4954520;29;20051;-82
2023/04/05 03:37:54;;;;;;;1999.90;999.90;;;-1.60;99.90;;;;;;4951864;28;20429;-82
2023/04/05 03:40:21;;;;;;;1999.90;999.90;;;;;;;;;;4945388;28;20098;-82
2023/04/05 03:42:46;;;;;;;1999.90;999.90;;;-0.60;99.90;;;;;;4930194;29;20040;-83
2023/04/05 03:45:13;;;;;;;1999.90;999.90;;;-1.50;99.90;;;;;;4931804;29;20055;-83
2023/04/05 03:47:38;;;;;;;1999.90;999.90;;;-1.00;99.90;;;;;;4927157;29;20123;-82
2023/04/05 03:50:05;;;;;;;1999.90;999.90;;;-0.20;99.90;;;;;;4937932;29;20174;-83
2023/04/05 03:52:30;;;;;;;1999.90;999.90;;;-2.70;99.90;;;;;;4932967;29;20066;-82
2023/04/05 03:54:56;;;;;;;1999.90;999.90;;;-0.60;99.90;;;;;;4935709;29;20044;-83
2023/04/05 03:57:22;;;;;;;1999.90;999.90;;;-0.50;99.90;;;;;;4934268;29;20154;-82
2023/04/05 03:59:47;;;;;;;1999.90;999.90;;;1.60;99.90;;;;;;4950828;28;20043;-82
2023/04/05 04:02:13;;;;;;;1999.90;999.90;;;-0.60;99.90;;;;;;4956755;29;20054;-82
2023/04/05 04:04:39;;;;;;;1999.90;999.90;;;0.70;99.90;;;;;;4930093;29;20051;-82
2023/04/05 04:07:05;;;;;;;1999.90;999.90;;;-0.60;99.90;;;;;;4944223;29;20077;-82
2023/04/05 04:09:31;;;;;;;1999.90;999.90;;;-1.40;99.90;;;;;;4923615;29;20051;-82
2023/04/05 04:11:56;;;;;;;1999.90;999.90;;;-1.40;99.90;;;;;;4919454;29;20044;-82
2023/04/05 04:14:23;;;;;;;1999.90;999.90;;;-1.00;99.90;;;;;;4934542;29;20113;-82
2023/04/05 04:16:49;;;;;;;1999.90;999.90;;;-1.00;99.90;;;;;;4943721;28;20516;-82
2023/04/05 04:19:17;;;;;;;1999.90;999.90;;;-1.00;99.90;;;;;;4923066;29;20095;-83
2023/04/05 04:21:50;;;;;;;1999.90;999.90;;;-0.80;99.90;;;;;;4926930;29;20055;-83
2023/04/05 04:24:19;;;;;;;1999.90;999.90;;;-1.20;99.90;;;;;;4934301;29;20090;-83
2023/04/05 04:26:46;;;;;;;1999.90;999.90;;;0.00;99.90;;;;;;4935145;29;20067;-81
2023/04/05 04:29:15;;;;;;;1999.90;999.90;;;-1.70;99.90;;;;;;4913002;29;20059;-81
2023/04/05 04:31:44;;;;;;;1999.90;999.90;;;-1.20;99.90;;;;;;4931588;29;20057;-80
2023/04/05 04:34:13;;;;;;;1999.90;999.90;;;-1.60;99.90;;;;;;4935632;29;20048;-81
2023/04/05 04:36:41;;;;;;;1999.90;999.90;;;-1.20;99.90;;;;;;4937405;29;20123;-80
2023/04/05 04:39:09;;;;;;;1999.90;999.90;;;0.50;99.90;;;;;;4930117;29;20442;-81
2023/04/05 04:41:37;;;;;;;1999.90;999.90;;;;;;;;;;4928786;29;20036;-80
2023/04/05 04:44:03;;;;;;;;;;;-1.10;99.90;;;;;;4932938;28;20080;-83
2023/04/05 04:46:33;;;;;;;1999.90;999.90;;;-1.30;99.90;;;;;;4946426;29;19922;-80
2023/04/05 04:49:04;;;;;;;1999.90;999.90;;;;;;;;;;4956130;28;20090;-81
2023/04/05 04:51:33;;;;;;;1999.90;999.90;;;-0.70;99.90;;;;;;4945815;29;20048;-81
2023/04/05 04:53:59;;;;;;;1999.90;999.90;;;;;;;;;;4946088;29;20058;-81
2023/04/05 04:56:25;;;;;;;1999.90;999.90;;;-0.70;99.90;;;;;;4932623;29;20405;-81
2023/04/05 04:58:55;;;;;;;1999.90;999.90;;;-1.30;99.90;;;;;;4932576;29;20051;-82
2023/04/05 05:01:23;;;;;;;1999.90;999.90;;;-0.20;99.90;;;;;;4939386;29;20178;-81
2023/04/05 05:03:50;;;;;;;1999.90;999.90;;;-1.50;99.90;;;;;;4954625;28;20051;-81
2023/04/05 05:06:16;;;;;;;1999.90;999.90;;;0.40;99.90;;;;;;4952136;28;20126;-81
2023/04/05 05:08:42;;;;;;;1999.90;999.90;;;0.70;99.90;;;;;;4935044;28;20055;-81
2023/04/05 05:11:08;;;;;;;1999.90;999.90;;;1.20;99.90;;;;;;4936924;29;20178;-81
2023/04/05 05:13:33;;;;;;;1999.90;999.90;;;-1.10;99.90;;;;;;4954029;28;20134;-82
2023/04/05 05:16:00;;;;;;;1999.90;999.90;;;1.50;99.90;;;;;;4953743;29;20484;-81
2023/04/05 05:18:26;;;;;;;1999.90;999.90;;;-0.80;99.90;;;;;;4952445;28;20145;-81
2023/04/05 05:20:52;;;;;;;1999.90;999.90;;;-1.50;99.90;;;;;;4949343;28;20086;-81
2023/04/05 05:23:19;;;;;;;1999.90;999.90;;;-1.10;99.90;;;;;;4952459;29;20067;-81
2023/04/05 05:25:45;;;;;;;;;;;1.60;99.90;;;;;;4934126;29;20083;-81
2023/04/05 05:28:11;;;;;;;1999.90;999.90;;;0.10;99.90;;;;;;4941409;29;19926;-81
2023/04/05 05:30:36;;;;;;;1999.90;999.90;;;-1.20;99.90;;;;;;4935127;28;20044;-82
2023/04/05 05:33:03;;;;;;;1999.90;999.90;;;-1.10;99.90;;;;;;4947644;29;20054;-82
2023/04/05 05:35:28;;;;;;;1999.90;999.90;;;0.20;99.90;;;;;;4946240;28;20051;-82
2023/04/05 05:37:54;;;;;;;1999.90;999.90;;;0.50;99.90;;;;;;4952043;29;20055;-82
2023/04/05 05:40:20;;;;;;;1999.90;999.90;;;-0.30;99.90;;;;;;4938919;29;20055;-82
2023/04/05 05:42:46;;;;;;;1999.90;999.90;;;-1.20;99.90;;;;;;4933088;29;20135;-82
2023/04/05 05:45:12;;;;;;;1999.90;999.90;;;;;;;;;;4936702;29;20079;-82
2023/04/05 05:47:38;;;;;;;1999.90;999.90;;;-1.00;99.90;;;;;;4941684;29;20055;-82
2023/04/05 05:50:04;;;;;;;1999.90;999.90;;;-1.20;99.90;;;;;;4928540;29;20084;-81
2023/04/05 05:52:30;;;;;;;1999.90;999.90;;;-0.50;99.90;;;;;;4944979;29;20050;-82
2023/04/05 05:54:56;;;;;;;1999.90;999.90;;;1.30;99.90;;;;;;4910524;29;20473;-82
2023/04/05 05:57:22;;;;;;;1999.90;999.90;;;;;;;;;;4946795;29;20111;-83
2023/04/05 05:59:48;;;;;;;1999.90;999.90;;;-0.30;99.90;;;;;;4935818;29;20052;-81
2023/04/05 06:02:13;;;;;;;1999.90;999.90;;;1.90;99.90;;;;;;4929555;29;20035;-82
2023/04/05 06:04:40;;;;;;;1999.90;999.90;;;;;;;;;;4934808;29;20074;-82
2023/04/05 06:07:06;;;;;;;1999.90;999.90;;;-0.70;99.90;;;;;;4944276;28;20051;-81
2023/04/05 06:09:34;;;;;;;1999.90;999.90;;;-0.50;99.90;;;;;;4935417;29;20059;-82
2023/04/05 06:12:00;;;;;;;1999.90;999.90;;;2.60;99.90;;;;;;4944623;29;20040;-82
2023/04/05 06:14:28;;;;;;;1999.90;999.90;;;-1.20;99.90;;;;;;4945114;29;20119;-82
2023/04/05 06:16:54;;;;;;;;;;;-0.40;99.90;;;;;;4934499;29;20096;-82
2023/04/05 06:19:20;;;;;;;1999.90;999.90;;;-0.30;99.90;;;;;;4931398;29;19965;-82
2023/04/05 06:21:46;;;;;;;1999.90;999.90;;;2.20;99.90;;;;;;4935643;29;20056;-82
2023/04/05 06:24:11;;;;;;;1999.90;999.90;;;0.80;99.90;;;;;;4931222;29;20063;-83
2023/04/05 06:26:37;;;;;;;1999.90;999.90;;;-0.10;99.90;;;;;;4933069;29;20484;-83
2023/04/05 06:29:03;;;;;;;1999.90;999.90;;;0.70;99.90;;;;;;4920846;29;20048;-82
2023/04/05 06:31:34;;;;;;;1999.90;999.90;;;1.60;99.90;;;;;;4947409;29;20043;-83
2023/04/05 06:34:00;;;;;;;1999.90;999.90;;;0.40;99.90;;;;;;4943097;29;20511;-83
2023/04/05 06:36:26;;;;;;;1999.90;999.90;;;-0.50;99.90;;;;;;4950834;28;20047;-82
2023/04/05 06:38:52;;;;;;;1999.90;999.90;;;;;;;;;;4940212;29;20453;-82
2023/04/05 06:41:18;;;;;;;1999.90;999.90;;;0.60;99.90;;;;;;4941131;29;20043;-82
2023/04/05 06:43:44;;;;;;;1999.90;999.90;;;2.50;99.90;;;;;;4933758;28;20519;-82
2023/04/05 06:46:11;;;;;;;1999.90;999.90;;;3.50;99.90;;;;;;4935669;29;20063;-82
2023/04/05 06:48:37;;;;;;;1999.90;999.90;;;0.20;99.90;;;;;;4921602;29;20353;-81
2023/04/05 06:51:03;;;;;;;1999.90;999.90;;;1.00;99.90;;;;;;4950864;29;20049;-81
2023/04/05 06:53:29;;;;;;;1999.90;999.90;;;-0.50;99.90;;;;;;4957827;28;20047;-84
2023/04/05 06:55:56;;;;;;;1999.90;999.90;;;4.20;99.90;;;;;;4919854;29;20371;-82
2023/04/05 06:58:23;;;;;;;1999.90;999.90;;;2.20;99.90;;;;;;4956240;28;20051;-82
2023/04/05 07:00:49;;;;;;;1999.90;999.90;;;1.50;99.90;;;;;;4948248;28;20423;-83
2023/04/05 07:03:16;;;;;;;1999.90;999.90;;;2.00;99.90;;;;;;4925556;29;20511;-82
2023/04/05 07:05:53;;;;;;;1999.90;999.90;;;2.00;99.90;;;;;;4944116;28;20035;-82
2023/04/05 07:08:22;;;;;;;1999.90;999.90;;;1.90;99.90;;;;;;4951048;29;20071;-82
2023/04/05 07:10:49;;;;;;;1999.90;999.90;;;0.80;99.90;;;;;;4952793;28;20098;-83
2023/04/05 07:13:16;;;;;;;1999.90;999.90;;;3.00;99.90;;;;;;4950327;28;20047;-82
2023/04/05 07:15:45;;;;;;;1999.90;999.90;;;1.30;99.90;;;;;;4937184;28;20392;-82
2023/04/05 07:18:12;;;;;;;1999.90;999.90;;;2.40;99.90;;;;;;4944533;29;20046;-82
2023/04/05 07:20:37;;;;;;;1999.90;999.90;;;5.10;99.90;;;;;;4946935;28;20043;-82
2023/04/05 07:23:04;;;;;;;1999.90;999.90;;;3.40;99.90;;;;;;4938021;29;20072;-82
2023/04/05 07:25:31;;;;;;;1999.90;999.90;;;2.40;99.90;;;;;;4947005;29;20051;-82
2023/04/05 07:27:57;;;;;;;1999.90;999.90;;;;;;;;;;4937206;29;20513;-82
2023/04/05 07:30:24;;;;;;;1999.90;999.90;;;2.50;99.90;;;;;;4945602;28;20542;-82
2023/04/05 07:32:50;;;;;;;1999.90;999.90;;;2.90;99.90;;;;;;4952654;28;20043;-83
2023/04/05 07:35:15;;;;;;;1999.90;999.90;;;5.20;99.90;;;;;;4923781;29;20059;-84
2023/04/05 07:37:41;;;;;;;1999.90;999.90;;;5.30;99.90;;;;;;4944607;29;20048;-82
2023/04/05 07:40:09;;;;;;;1999.90;999.90;;;5.80;99.90;;;;;;4924973;29;20653;-82
2023/04/05 07:42:35;;;;;;;1999.90;999.90;;;6.00;99.90;;;;;;4933823;29;20118;-83
2023/04/05 07:45:01;;;;;;;1999.90;999.90;;;11.70;99.90;;;;;;4935103;29;21454;-83
2023/04/05 07:47:27;;;;;;;1999.90;999.90;;;9.50;94.70;;;;;;4936775;29;20051;-83
2023/04/05 07:49:52;;;;;;;1999.90;999.90;;;10.80;74.50;;;;;;4950843;29;20043;-83
2023/04/05 07:52:18;;;;;;;1999.90;999.90;;;11.80;42.20;;;;;;4956066;28;20098;-83
2023/04/05 07:54:44;;;;;;;1999.90;999.90;;;12.80;33.00;;;;;;4941822;29;20056;-82
2023/04/05 07:57:16;;;;;;;1999.90;999.90;;;13.90;29.90;;;;;;4908306;29;20115;-83
2023/04/05 07:59:42;;;;;;;1999.90;999.90;;;14.90;13.90;;;;;;4934160;29;20055;-83
2023/04/05 08:02:08;;;;;;;1999.90;451.38;;;15.50;9.10;;;;;;4919537;29;20091;-83
2023/04/05 08:04:33;;;;;;;1999.90;999.90;;;16.30;1.00;;;;;;4943392;29;20384;-83
2023/04/05 08:06:59;;;;;;;1999.90;999.90;;;16.30;1.00;;;;;;4943132;29;20039;-83
2023/04/05 08:09:25;;;;;;;1999.90;999.90;;;16.90;1.00;;;;;;4951871;28;20047;-83
2023/04/05 08:11:51;;;;;;;1999.90;999.90;;;17.10;1.00;;;;;;4929152;29;20035;-84
2023/04/05 08:14:16;;;;;;;1999.90;999.90;;;17.40;1.00;;;;;;4937101;29;20055;-84
2023/04/05 08:16:42;;;;;;;1999.90;999.90;;;18.10;1.00;;;;;;4945622;29;20050;-83
2023/04/05 08:19:08;;;;;;;1999.90;999.90;;;18.60;1.00;;;;;;4948358;29;20055;-84
2023/04/05 08:21:34;;;;;;;1999.90;999.90;;;18.50;1.00;;;;;;4940979;29;20095;-83
2023/04/05 08:24:00;;;;;;;1999.90;999.90;;;18.50;1.00;;;;;;4932982;29;20044;-83
2023/04/05 08:26:26;;;;;;;1999.90;999.90;;;18.70;1.00;;;;;;4928661;28;20845;-85
2023/04/05 08:28:51;;;;;;;1999.90;999.90;;;18.70;1.00;;;;;;4933757;29;20421;-84
2023/04/05 08:31:17;;;;;;;1999.90;998.13;;;18.70;1.00;;;;;;4946931;29;20416;-84
2023/04/05 08:33:43;;;;;;;1999.90;999.90;;;18.30;1.00;;;;;;4932896;29;20496;-83
2023/04/05 08:36:10;;;;;;;1956.80;821.30;;;18.80;1.00;;;;;;4931583;29;20047;-85
2023/04/05 08:38:36;;;;;;;1996.35;417.77;;;18.60;1.00;;;;;;4940054;29;20048;-83
2023/04/05 08:41:17;;;;;;;1999.90;661.13;;;17.10;1.00;;;;;;4936599;29;20105;-83
2023/04/05 08:43:51;;;;;;;1758.80;795.50;;;17.20;1.00;;;;;;4945708;29;20044;-86
2023/04/05 08:46:17;;;;;;;1999.90;894.13;;;16.80;1.00;;;;;;4930020;29;20055;-85
2023/04/05 08:48:43;;;;;;;1999.90;820.95;;;16.90;1.00;;;;;;4947340;29;20051;-84
2023/04/05 08:51:09;;;;;;;1999.90;999.90;;;16.80;1.00;;;;;;4947849;28;20046;-83
2023/04/05 08:53:35;;;;;;;1999.90;843.28;;;16.70;1.00;;;;;;4935297;29;20075;-83
2023/04/05 08:56:02;;;;;;;1999.90;999.90;;;16.80;1.00;;;;;;4946020;29;20071;-84
2023/04/05 08:58:30;;;;;;;1999.90;999.90;;;17.00;1.00;;;;;;4940023;28;20516;-83
2023/04/05 09:00:57;;;;;;;1999.90;999.90;;;17.70;1.00;;;;;;4944813;29;20052;-84
2023/04/05 09:03:28;;;;;;;1773.55;518.63;;;18.90;1.00;;;;;;4948514;28;20043;-84
2023/04/05 09:05:57;;;;;;;1999.90;999.90;;;18.70;1.00;;;;;;4936101;29;20090;-87
2023/04/05 09:08:23;;;;;;;1999.90;999.90;;;19.50;1.00;;;;;;4940658;29;20079;-85
2023/04/05 09:10:52;;;;;;;1999.90;999.90;;;18.90;1.00;;;;;;4948568;29;20055;-85
2023/04/05 09:13:18;;;;;;;1999.90;999.90;;;19.10;1.00;;;;;;4946199;29;20493;-84
2023/04/05 09:15:45;;;;;;;1999.90;999.90;;;19.50;1.00;;;;;;4945790;29;20055;-85
2023/04/05 09:18:11;;;;;;;1999.90;999.90;;;18.10;1.00;;;;;;4915111;29;20048;-87
2023/04/05 09:20:37;;;;;;;1999.90;999.90;;;19.20;1.00;;;;;;4942380;29;20051;-83
2023/04/05 09:23:03;;;;;;;1999.90;999.90;;;18.90;1.00;;;;;;4927246;29;20059;-84
2023/04/05 09:25:31;;;;;;;1999.90;999.90;;;19.40;1.00;;;;;;4948256;29;20051;-83
2023/04/05 09:28:03;;;;;;;1999.90;999.90;;;19.00;1.00;;;;;;4919253;29;20057;-85
2023/04/05 09:30:29;;;;;;;1999.90;999.90;;;17.90;1.00;;;;;;4936076;29;20047;-83
2023/04/05 09:32:55;;;;;;;1999.90;999.90;;;17.70;1.00;;;;;;4936310;29;20039;-83
2023/04/05 09:35:23;;;;;;;1999.90;999.90;;;19.00;1.00;;;;;;4933462;29;20050;-84
2023/04/05 09:37:53;;;;;;;1999.90;999.90;;;19.50;1.00;;;;;;4956946;28;20489;-85
2023/04/05 09:40:20;;;;;;;1999.90;999.90;;;20.20;1.00;;;;;;4943028;29;20118;-85
2023/04/05 09:42:46;;;;;;;1999.90;999.90;;;19.40;1.00;;;;;;4939783;29;20389;-84
2023/04/05 09:45:13;;;;;;;1999.90;999.90;;;19.10;1.00;;;;;;4941609;29;20055;-83
2023/04/05 09:47:40;;;;;;;1999.90;999.90;;;18.90;1.00;;;;;;4946151;29;21675;-83
2023/04/05 09:50:15;;;;;;;1999.90;999.90;;;19.10;1.00;;;;;;4944950;28;20069;-86
2023/04/05 09:52:42;;;;;;;1999.90;999.90;;;19.10;1.00;;;;;;4943089;29;20135;-83
2023/04/05 09:55:08;;;;;;;1999.90;999.90;;;19.90;1.00;;;;;;4943564;29;20064;-84
2023/04/05 09:57:39;;;;;;;1999.90;999.90;;;20.00;1.00;;;;;;4944641;29;20568;-83
2023/04/05 10:00:15;;;;;;;1999.90;999.90;;;20.00;1.00;;;;;;4938251;28;20035;-83
2023/04/05 10:02:41;;;;;;;1999.90;999.90;;;19.50;1.00;;;;;;4940149;29;20532;-85
2023/04/05 10:05:17;;;;;;;1999.90;999.90;;;18.80;1.00;;;;;;4936899;28;20126;-81
2023/04/05 10:07:44;;;;;;;1999.90;999.90;;;18.40;1.00;;;;;;4945528;29;20526;-82
2023/04/05 10:10:14;;;;;;;1999.90;999.90;;;20.60;1.00;;;;;;4944338;28;20110;-84
2023/04/05 10:12:41;;;;;;;1999.90;999.90;;;19.90;1.00;;;;;;4940814;29;20083;-83
2023/04/05 10:15:08;;;;;;;1999.90;999.90;;;20.90;1.00;;;;;;4939549;29;20047;-83
2023/04/05 10:17:47;;;;;;;1999.90;999.90;;;21.60;1.00;;;;;;4944337;29;20071;-83
2023/04/05 10:20:16;;;;;;;1999.90;999.90;;;22.30;1.00;;;;;;4943261;29;20086;-82
2023/04/05 10:22:50;;;;;;;1999.90;999.90;;;21.60;1.00;;;;;;4936354;29;20059;-85
2023/04/05 10:25:31;;;;;;;1999.90;999.90;;;20.90;1.00;;;;;;4940624;29;20047;-83
2023/04/05 10:28:12;;;;;;;1999.90;999.90;;;21.40;1.00;;;;;;4924381;29;20489;-82
2023/04/05 10:30:46;;;;;;;1999.90;999.90;;;21.30;1.00;;;;;;4929474;29;20057;-82
2023/04/05 10:33:26;;;;;;;1999.90;999.90;;;22.20;1.00;;;;;;4927008;29;20048;-83
2023/04/05 10:35:57;;;;;;;1999.90;999.90;;;20.70;1.00;;;;;;4934110;29;20515;-84
2023/04/05 10:38:28;;;;;;;1999.90;999.90;;;19.40;1.00;;;;;;4943628;29;20044;-83
2023/04/05 10:41:11;;;;;;;1999.90;999.90;;;18.50;1.00;;;;;;4936384;29;20047;-83
2023/04/05 10:43:39;;;;;;;1999.90;999.90;;;18.00;1.00;;;;;;4943632;29;20379;-83
2023/04/05 10:46:06;;;;;;;1999.90;999.90;;;18.30;1.00;;;;;;4941715;29;20055;-84
2023/04/05 10:48:44;;;;;;;1999.90;999.90;;;18.60;1.00;;;;;;4933182;29;20048;-83
2023/04/05 10:51:12;;;;;;;1999.90;999.90;;;19.90;1.00;;;;;;4939540;29;20111;-84
2023/04/05 10:53:39;;;;;;;1999.90;999.90;;;20.80;1.00;;;;;;4937585;29;20043;-83
2023/04/05 10:56:05;;;;;;;1999.90;999.90;;;21.60;1.00;;;;;;4937520;28;20083;-84
2023/04/05 10:58:33;;;;;;;1999.90;999.90;;;22.10;1.00;;;;;;4954101;29;20043;-83
2023/04/05 11:01:00;;;;;;;1999.90;999.90;;;21.40;1.00;;;;;;4945310;29;20090;-85
2023/04/05 11:04:14;;;;;;;1999.90;999.90;;;22.40;1.00;;;;;;4939611;29;20151;-85
2023/04/05 11:06:40;;;;;;;1999.90;999.90;;;20.60;1.00;;;;;;4842043;29;20535;-83
2023/04/05 11:09:14;;;;;;;1999.90;999.90;;;21.20;1.00;;;;;;4927229;29;20130;-86
2023/04/05 11:11:41;;;;;;;1634.50;756.45;;;19.90;1.00;;;;;;4954199;29;20150;-83
2023/04/05 11:14:36;;;;;;;1999.90;999.90;;;19.80;1.00;;;;;;4950981;28;20059;-84
2023/04/05 11:17:02;;;;;;;1999.90;999.90;;;20.20;1.00;;;;;;4950795;28;20055;-83
2023/04/05 11:19:47;;;;;;;1999.90;999.90;;;20.90;1.00;;;;;;4945183;28;20067;-84
2023/04/05 11:22:25;;;;;;;1999.90;999.90;;;21.50;1.00;;;;;;4917875;29;20052;-84
2023/04/05 11:24:52;;;;;;;1999.90;999.90;;;22.00;1.00;;;;;;4916969;29;20378;-84
2023/04/05 11:27:28;;;;;;;1999.90;999.90;;;22.10;1.00;;;;;;4951644;29;20106;-83
2023/04/05 11:29:54;;;;;;;1999.90;999.90;;;22.20;1.00;;;;;;4941547;29;20086;-83
2023/04/05 11:32:21;;;;;;;1999.90;999.90;;;22.30;1.00;;;;;;4955673;28;20473;-84
2023/04/05 11:35:14;;;;;;;1999.90;999.90;;;21.30;1.00;;;;;;4951429;29;20126;-84
2023/04/05 11:37:59;;;;;;;1999.90;999.90;;;21.10;1.00;;;;;;4949996;28;20408;-84
2023/04/05 11:40:29;;;;;;;1999.90;999.90;;;21.80;1.00;;;;;;4931268;29;20047;-83
2023/04/05 11:43:09;;;;;;;1999.90;999.90;;;20.70;1.00;;;;;;4956745;28;20065;-83
2023/04/05 11:45:36;;;;;;;1999.90;999.90;;;21.70;1.00;;;;;;4922510;29;20048;-83
2023/04/05 11:48:06;;;;;;;1999.90;999.90;;;20.70;1.00;;;;;;4951057;29;20043;-84
2023/04/05 11:50:33;;;;;;;1999.90;999.90;;;21.20;1.00;;;;;;4933682;29;20047;-83
2023/04/05 11:53:15;;;;;;;1999.90;999.90;;;21.40;1.00;;;;;;4937655;29;20086;-83
2023/04/05 11:55:44;;;;;;;1999.90;999.90;;;20.60;1.00;;;;;;4946772;28;20044;-83
2023/04/05 11:58:17;;;;;;;1999.90;999.90;;;20.30;1.00;;;;;;4917345;29;20056;-83
2023/04/05 12:00:44;;;;;;;1999.90;999.90;;;20.80;1.00;;;;;;4920490;29;20051;-83
2023/04/05 12:03:14;;;;;;;1999.90;999.90;;;21.20;1.00;;;;;;4952011;29;20055;-83
2023/04/05 12:05:53;;;;;;;1999.90;999.90;;;21.90;1.00;;;;;;4955569;28;20054;-83
2023/04/05 12:08:20;;;;;;;1999.90;999.90;;;22.90;1.00;;;;;;4936025;29;20051;-84
2023/04/05 12:10:56;;;;;;;1999.90;999.90;;;23.50;1.00;;;;;;4954008;29;20062;-83
2023/04/05 12:13:30;;;;;;;1999.90;999.90;;;22.50;1.00;;;;;;4947856;29;20062;-83
2023/04/05 12:16:01;;;;;;;1999.90;999.90;;;22.90;1.00;;;;;;4953565;28;20090;-83